KDNL/DNL METAR and TAF weather

Enter ICAO airport designator
Station Type Date Time Source
KDNL METAR 2020/09/20 07:53 UTC NOAA

KDNL 200753Z AUTO 03009KT 10SM CLR 15/09 A3024 RMK AO2 SLP236 T01500094


Station Type Date Time Source
KDNL Decoded METAR 2020/09/20 07:53 UTC NOAA

AUGUSTA DANIEL FIELD, GA, United States (KDNL) 33-28N 82-02W 130M
Sep 20, 2020 - 03:53 AM EDT / 2020.09.20 0753 UTC
Wind: from the NNE (030 degrees) at 10 MPH (9 KT):0
Visibility: 10 mile(s):0
Sky conditions: clear
Temperature: 59.0 F (15.0 C)
Dew Point: 48.9 F (9.4 C)
Relative Humidity: 69%
Pressure (altimeter): 30.24 in. Hg (1024 hPa)
ob: KDNL 200753Z AUTO 03009KT 10SM CLR 15/09 A3024 RMK AO2 SLP236 T01500094
cycle: 8

Station Type Date Time Source
KDNL TAF 2020/09/20 06:27 UTC NOAA

TAF KDNL 200525Z 2006/2106 04010KT P6SM BKN200
TEMPO 2008/2011 BKN030
FM201400 04012G20KT P6SM SKC
FM210000 04010KT P6SM SKC WS015/05035KT

Example: see airport list